Time;durP1;ratioP1;P1;durP2;ratioP2;P2;SDS_P1;SDS_P2;PMS_P1;PMS_P2;Temp;Humidity;BMP_temperature;BMP_pressure;BME280_temperature;BME280_humidity;BME280_pressure;Samples;Min_cycle;Max_cycle;Signal;HPM_P1;HPM_P2
2021/01/24 00:02:44;;;;;;;6.37;5.03;;;;;1.40;99031.00;;;;10520346;28;20248;-75
2021/01/24 00:07:46;;;;;;;9.47;6.53;;;;;1.40;99049.00;;;;10536843;28;20242;-74
2021/01/24 00:12:48;;;;;;;10.53;6.33;;;;;1.40;99040.00;;;;10537280;28;20743;-74
2021/01/24 00:17:49;;;;;;;8.80;5.37;;;;;1.40;99048.00;;;;10522303;28;20224;-74
2021/01/24 00:22:50;;;;;;;7.43;4.03;;;;;1.40;99044.00;;;;10532548;28;20202;-74
2021/01/24 00:27:52;;;;;;;8.00;4.00;;;;;1.30;99044.00;;;;10496190;28;20220;-74
2021/01/24 00:32:53;;;;;;;5.90;3.70;;;;;1.30;99052.00;;;;10478100;28;20228;-74
2021/01/24 00:37:55;;;;;;;6.40;3.73;;;;;1.30;99062.00;;;;10494536;28;20288;-74
2021/01/24 00:42:56;;;;;;;6.70;3.60;;;;;1.30;99067.00;;;;10477970;28;20981;-74
2021/01/24 00:47:57;;;;;;;6.93;3.33;;;;;1.40;99075.00;;;;10495454;28;20200;-74
2021/01/24 00:52:58;;;;;;;3.20;2.80;;;;;1.40;99086.00;;;;10509875;28;20216;-74
2021/01/24 00:58:02;;;;;;;4.33;2.80;;;;;1.30;99090.00;;;;10526535;28;20197;-74
2021/01/24 01:03:04;;;;;;;3.80;2.87;;;;;1.20;99103.00;;;;10527198;28;20244;-74
2021/01/24 01:08:06;;;;;;;5.80;3.70;;;;;1.20;99096.00;;;;10509218;28;20632;-74
2021/01/24 01:13:08;;;;;;;6.77;4.67;;;;;1.30;99105.00;;;;10489266;28;20225;-74
2021/01/24 01:18:10;;;;;;;8.23;5.10;;;;;1.30;99114.00;;;;10525945;28;20246;-74
2021/01/24 01:23:11;;;;;;;8.07;4.70;;;;;1.30;99113.00;;;;10525609;28;20209;-74
2021/01/24 01:28:12;;;;;;;8.83;6.23;;;;;1.40;99130.00;;;;10504601;28;20186;-74
2021/01/24 01:33:15;;;;;;;10.67;6.87;;;;;1.40;99134.00;;;;10483487;28;20232;-74
2021/01/24 01:38:17;;;;;;;15.00;7.87;;;;;1.50;99141.00;;;;10500076;28;20201;-74
2021/01/24 01:43:19;;;;;;;11.67;7.90;;;;;1.50;99145.00;;;;10506752;28;20220;-74
2021/01/24 01:48:20;;;;;;;12.43;7.37;;;;;1.50;99158.00;;;;10542912;28;20280;-74
2021/01/24 01:53:22;;;;;;;11.27;6.87;;;;;1.50;99157.00;;;;10524173;28;20664;-75
2021/01/24 01:58:23;;;;;;;14.97;6.70;;;;;1.50;99153.00;;;;10492519;28;20215;-74
2021/01/24 02:03:54;;;;;;;10.30;6.27;;;;;1.40;99152.00;;;;10523493;28;20291;-75
2021/01/24 02:09:09;;;;;;;7.03;5.00;;;;;1.40;99172.00;;;;10490770;28;20313;-75
2021/01/24 02:14:43;;;;;;;6.80;4.47;;;;;1.30;99171.00;;;;10523460;28;20197;-74
2021/01/24 02:20:20;;;;;;;8.80;5.10;;;;;1.30;99170.00;;;;10504978;28;20729;-75
2021/01/24 02:25:40;;;;;;;8.97;5.90;;;;;1.30;99177.00;;;;10491757;28;20209;-75
2021/01/24 02:30:42;;;;;;;6.77;4.13;;;;;1.30;99201.00;;;;10498511;28;20193;-74
2021/01/24 02:36:04;;;;;;;9.00;5.43;;;;;1.30;99198.00;;;;10464127;28;20581;-74
2021/01/24 02:41:13;;;;;;;10.40;7.33;;;;;1.30;99202.00;;;;10481238;28;20194;-75
2021/01/24 02:46:16;;;;;;;12.43;8.13;;;;;1.30;99202.00;;;;10530760;28;20297;-75
2021/01/24 02:51:19;;;;;;;12.57;8.20;;;;;1.20;99223.00;;;;10541646;28;20213;-74
2021/01/24 02:56:22;;;;;;;14.30;8.10;;;;;1.00;99234.00;;;;10522709;28;20287;-75
2021/01/24 03:01:23;;;;;;;9.40;7.07;;;;;0.80;99250.00;;;;10540675;28;20648;-75
2021/01/24 03:06:25;;;;;;;11.23;7.53;;;;;0.60;99244.00;;;;10536186;28;20308;-75
2021/01/24 03:11:28;;;;;;;15.30;9.43;;;;;0.50;99255.00;;;;10521177;28;20192;-74
2021/01/24 03:16:31;;;;;;;15.07;9.83;;;;;0.40;99260.00;;;;10529665;28;20298;-74
2021/01/24 03:21:35;;;;;;;19.27;10.90;;;;;0.40;99258.00;;;;10521717;28;20197;-75
2021/01/24 03:26:37;;;;;;;20.63;10.93;;;;;0.40;99261.00;;;;10521335;28;20715;-74
2021/01/24 03:31:40;;;;;;;21.83;12.67;;;;;0.50;99262.00;;;;10540198;28;20189;-74
2021/01/24 03:36:41;;;;;;;21.70;11.53;;;;;0.60;99264.00;;;;10522412;28;20263;-73
2021/01/24 03:41:44;;;;;;;18.13;11.97;;;;;0.60;99268.00;;;;10540296;28;20242;-73
2021/01/24 03:46:45;;;;;;;21.03;12.87;;;;;0.60;99270.00;;;;10504807;28;20219;-73
2021/01/24 03:51:47;;;;;;;23.33;14.47;;;;;0.60;99278.00;;;;10538663;28;20197;-74
2021/01/24 03:56:48;;;;;;;19.17;13.37;;;;;0.60;99276.00;;;;10496849;28;20230;-72
2021/01/24 04:01:49;;;;;;;19.37;11.97;;;;;0.60;99281.00;;;;10495834;28;20657;-72
2021/01/24 04:06:51;;;;;;;19.60;12.27;;;;;0.60;99285.00;;;;10496159;28;21116;-72
2021/01/24 04:11:52;;;;;;;15.63;10.13;;;;;0.60;99282.00;;;;10496905;28;20217;-72
2021/01/24 04:16:54;;;;;;;20.23;11.10;;;;;0.60;99288.00;;;;10490347;28;20197;-72
2021/01/24 04:21:55;;;;;;;19.63;11.37;;;;;0.60;99291.00;;;;10478562;28;20289;-72
2021/01/24 04:26:56;;;;;;;25.87;10.20;;;;;0.70;99304.00;;;;10501178;28;20251;-72
2021/01/24 04:31:58;;;;;;;20.10;11.37;;;;;0.70;99312.00;;;;10503882;28;20259;-72
2021/01/24 04:36:59;;;;;;;19.70;11.67;;;;;0.80;99311.00;;;;10503769;28;20587;-72
2021/01/24 04:42:03;;;;;;;17.83;10.40;;;;;0.80;99326.00;;;;10503647;28;20185;-72
2021/01/24 04:47:06;;;;;;;27.13;11.37;;;;;0.90;99326.00;;;;10542475;28;20232;-72
2021/01/24 04:52:07;;;;;;;21.33;10.20;;;;;0.90;99341.00;;;;10504564;28;20198;-72
2021/01/24 04:57:10;;;;;;;18.93;9.90;;;;;0.90;99350.00;;;;10502261;28;20212;-72
2021/01/24 05:02:12;;;;;;;16.80;9.80;;;;;0.90;99356.00;;;;10503901;28;20217;-72
2021/01/24 05:07:14;;;;;;;23.30;11.47;;;;;1.00;99355.00;;;;10485414;28;20226;-72
2021/01/24 05:12:18;;;;;;;24.20;11.33;;;;;0.90;99363.00;;;;10502970;28;20189;-72
2021/01/24 05:17:19;;;;;;;17.53;10.83;;;;;0.90;99366.00;;;;10542625;28;20185;-72
2021/01/24 05:22:21;;;;;;;25.47;10.67;;;;;0.90;99369.00;;;;10527318;28;20181;-72
2021/01/24 05:27:25;;;;;;;27.73;10.93;;;;;0.90;99380.00;;;;10526135;28;20659;-72
2021/01/24 05:32:40;;;;;;;25.50;10.40;;;;;0.90;99388.00;;;;10501996;28;20190;-72
2021/01/24 05:37:45;;;;;;;22.20;10.67;;;;;0.90;99384.00;;;;10500912;28;20189;-72
2021/01/24 05:42:47;;;;;;;18.37;10.17;;;;;0.90;99386.00;;;;10503538;28;20271;-72
2021/01/24 05:47:49;;;;;;;15.60;8.57;;;;;0.90;99385.00;;;;10525251;28;20272;-72
2021/01/24 05:52:50;;;;;;;19.73;11.10;;;;;1.00;99386.00;;;;10540221;28;20184;-72
2021/01/24 05:57:51;;;;;;;15.90;9.97;;;;;0.90;99386.00;;;;10504355;28;20192;-72
2021/01/24 06:02:53;;;;;;;18.67;10.43;;;;;1.00;99397.00;;;;10541992;28;20217;-72
2021/01/24 06:07:55;;;;;;;19.13;11.03;;;;;0.90;99398.00;;;;10508880;28;20196;-72
2021/01/24 06:13:02;;;;;;;26.17;10.93;;;;;0.90;99394.00;;;;10507910;28;20280;-72
2021/01/24 06:18:12;;;;;;;17.67;9.80;;;;;0.80;99404.00;;;;10524024;28;20228;-72
2021/01/24 06:23:21;;;;;;;24.17;11.27;;;;;0.70;99404.00;;;;10584660;28;20636;-72
2021/01/24 06:28:25;;;;;;;16.87;9.63;;;;;0.70;99408.00;;;;10566220;28;20249;-73
2021/01/24 06:33:26;;;;;;;16.70;10.63;;;;;0.70;99420.00;;;;10565698;28;20188;-73
2021/01/24 06:38:42;;;;;;;32.53;17.27;;;;;0.60;99411.00;;;;10548837;28;20191;-73
2021/01/24 06:43:48;;;;;;;19.47;12.40;;;;;0.60;99414.00;;;;10555151;28;20533;-74
2021/01/24 06:48:51;;;;;;;19.43;12.90;;;;;0.50;99437.00;;;;10539536;28;20202;-72
2021/01/24 06:53:53;;;;;;;19.80;11.40;;;;;0.50;99441.00;;;;10548071;28;20189;-72
2021/01/24 06:58:54;;;;;;;29.77;17.60;;;;;0.50;99443.00;;;;10547683;28;20223;-72
2021/01/24 07:04:20;;;;;;;23.00;14.17;;;;;0.50;99464.00;;;;10512507;28;20254;-72
2021/01/24 07:09:27;;;;;;;26.83;15.87;;;;;0.40;99474.00;;;;10522335;28;20184;-75
2021/01/24 07:14:32;;;;;;;25.33;14.33;;;;;0.40;99473.00;;;;10521364;28;20196;-73
2021/01/24 07:19:48;;;;;;;27.07;14.60;;;;;0.40;99492.00;;;;10512540;28;20699;-73
2021/01/24 07:24:51;;;;;;;20.33;11.03;;;;;0.40;99486.00;;;;10521181;28;20208;-73
2021/01/24 07:29:52;;;;;;;24.93;12.57;;;;;0.40;99504.00;;;;10505140;28;20192;-73
2021/01/24 07:34:55;;;;;;;32.73;19.43;;;;;0.40;99509.00;;;;10504858;28;20582;-73
2021/01/24 07:39:57;;;;;;;56.97;37.60;;;;;0.40;99529.00;;;;10505058;28;20321;-73
2021/01/24 07:44:59;;;;;;;27.33;18.00;;;;;0.40;99529.00;;;;10508421;28;20679;-73
2021/01/24 07:50:02;;;;;;;25.30;14.37;;;;;0.50;99518.00;;;;10519704;28;20201;-73
2021/01/24 07:55:05;;;;;;;25.73;14.27;;;;;0.50;99528.00;;;;10504220;28;20212;-73
2021/01/24 08:00:07;;;;;;;25.30;13.93;;;;;0.50;99547.00;;;;10503724;28;20529;-73
2021/01/24 08:05:15;;;;;;;25.67;15.07;;;;;0.50;99552.00;;;;10519932;28;20224;-73
2021/01/24 08:10:17;;;;;;;29.07;15.37;;;;;0.70;99552.00;;;;10520860;28;20712;-73
2021/01/24 08:15:18;;;;;;;26.13;14.20;;;;;0.80;99550.00;;;;10562679;28;20241;-73
2021/01/24 08:20:22;;;;;;;27.10;14.23;;;;;0.90;99565.00;;;;10520102;28;20597;-73
2021/01/24 08:25:23;;;;;;;24.93;13.83;;;;;0.90;99573.00;;;;10519976;28;20740;-73
2021/01/24 08:30:24;;;;;;;26.63;15.60;;;;;1.00;99573.00;;;;10520352;28;20599;-73
2021/01/24 08:35:32;;;;;;;26.67;15.40;;;;;1.00;99566.00;;;;10537381;28;20204;-73
2021/01/24 08:40:37;;;;;;;29.37;16.00;;;;;1.10;99573.00;;;;10504818;28;20655;-73
2021/01/24 08:45:38;;;;;;;26.93;14.73;;;;;1.30;99565.00;;;;10519685;28;20221;-73
2021/01/24 08:50:39;;;;;;;23.13;14.90;;;;;1.50;99577.00;;;;10502071;28;20201;-73
2021/01/24 08:55:48;;;;;;;29.80;15.90;;;;;1.70;99571.00;;;;10502798;28;20189;-73
2021/01/24 09:01:06;;;;;;;24.77;15.43;;;;;2.00;99580.00;;;;10519086;28;20219;-73
2021/01/24 09:06:15;;;;;;;30.33;18.27;;;;;2.50;99592.00;;;;10510507;28;20654;-73
2021/01/24 09:11:16;;;;;;;32.13;15.73;;;;;2.90;99587.00;;;;10547358;28;20184;-73
2021/01/24 09:16:21;;;;;;;18.60;11.03;;;;;3.30;99589.00;;;;10522758;28;20287;-73
2021/01/24 09:21:22;;;;;;;19.57;11.70;;;;;3.70;99592.00;;;;10542202;28;20626;-73
2021/01/24 09:26:23;;;;;;;19.33;11.03;;;;;4.00;99583.00;;;;10509240;28;20213;-73
2021/01/24 09:31:25;;;;;;;13.77;9.13;;;;;4.30;99589.00;;;;10525598;28;20259;-73
2021/01/24 09:36:26;;;;;;;11.67;8.73;;;;;4.20;99587.00;;;;10525734;28;20189;-73
2021/01/24 09:41:27;;;;;;;13.87;9.83;;;;;4.10;99593.00;;;;10586179;28;20216;-73
2021/01/24 09:46:29;;;;;;;14.23;11.17;;;;;4.10;99589.00;;;;10575228;27;20278;-73
2021/01/24 09:51:31;;;;;;;14.13;10.27;;;;;4.20;99586.00;;;;10567291;28;20196;-73
2021/01/24 09:56:32;;;;;;;21.03;11.97;;;;;4.50;99582.00;;;;10525543;28;20288;-75
2021/01/24 10:01:34;;;;;;;19.63;11.33;;;;;4.70;99591.00;;;;10527033;28;20877;-75
2021/01/24 10:06:35;;;;;;;15.83;9.50;;;;;4.70;99591.00;;;;10532752;28;20683;-75
2021/01/24 10:11:37;;;;;;;13.17;9.70;;;;;4.70;99592.00;;;;10566978;28;20188;-75
2021/01/24 10:16:38;;;;;;;15.00;9.43;;;;;4.80;99590.00;;;;10532173;28;20287;-75
2021/01/24 10:21:39;;;;;;;18.63;10.60;;;;;4.90;99601.00;;;;10550867;28;20208;-75
2021/01/24 10:26:41;;;;;;;17.97;10.30;;;;;5.20;99599.00;;;;10539712;28;20204;-75
2021/01/24 10:31:42;;;;;;;17.03;10.83;;;;;5.20;99594.00;;;;10549093;28;20185;-75
2021/01/24 10:36:43;;;;;;;18.27;11.40;;;;;5.50;99593.00;;;;10565220;28;20191;-75
2021/01/24 10:41:45;;;;;;;19.13;10.20;;;;;5.50;99591.00;;;;10583971;28;20184;-75
2021/01/24 10:46:49;;;;;;;14.10;9.47;;;;;5.40;99600.00;;;;10547896;28;20234;-74
2021/01/24 10:51:50;;;;;;;13.57;8.57;;;;;5.20;99589.00;;;;10564482;28;20220;-74
2021/01/24 10:56:51;;;;;;;16.43;9.60;;;;;5.20;99578.00;;;;10547905;28;20188;-74
2021/01/24 11:01:53;;;;;;;14.37;8.53;;;;;5.20;99581.00;;;;10547364;28;20215;-74
2021/01/24 11:06:57;;;;;;;13.07;8.97;;;;;5.30;99592.00;;;;10547559;28;20228;-74
2021/01/24 11:11:59;;;;;;;14.73;9.60;;;;;5.50;99600.00;;;;10564583;28;20245;-74
2021/01/24 11:17:03;;;;;;;23.97;10.33;;;;;5.70;99576.00;;;;10522168;28;20242;-73
2021/01/24 11:22:05;;;;;;;10.73;8.03;;;;;5.90;99594.00;;;;10504851;28;20212;-73
2021/01/24 11:27:07;;;;;;;13.10;8.97;;;;;6.10;99585.00;;;;10505086;28;20760;-73
2021/01/24 11:32:10;;;;;;;14.03;9.10;;;;;6.40;99582.00;;;;10538088;28;20201;-74
2021/01/24 11:37:11;;;;;;;15.63;10.13;;;;;6.20;99587.00;;;;10520658;28;20218;-74
2021/01/24 11:42:13;;;;;;;16.20;9.20;;;;;6.20;99583.00;;;;10564477;28;20194;-74
2021/01/24 11:47:14;;;;;;;19.40;9.70;;;;;6.30;99580.00;;;;10532764;28;20261;-74
2021/01/24 11:52:16;;;;;;;15.17;8.77;;;;;6.20;99574.00;;;;10546445;28;20574;-74
2021/01/24 11:57:17;;;;;;;15.50;9.63;;;;;5.90;99557.00;;;;10562549;28;20196;-74
2021/01/24 12:02:21;;;;;;;14.90;8.90;;;;;5.70;99556.00;;;;10562453;28;20228;-75
2021/01/24 12:07:23;;;;;;;17.53;9.60;;;;;5.50;99568.00;;;;10562707;28;20597;-75
2021/01/24 12:12:24;;;;;;;15.57;8.97;;;;;5.40;99563.00;;;;10528990;28;20213;-75
2021/01/24 12:17:26;;;;;;;14.47;9.70;;;;;5.30;99540.00;;;;10570049;28;20191;-75
2021/01/24 12:22:27;;;;;;;13.53;9.03;;;;;5.20;99538.00;;;;10587383;28;20191;-75
2021/01/24 12:27:28;;;;;;;15.00;8.33;;;;;5.10;99543.00;;;;10580469;28;20212;-75
2021/01/24 12:32:30;;;;;;;11.77;7.57;;;;;5.00;99532.00;;;;10528413;28;20199;-74
2021/01/24 12:37:31;;;;;;;11.93;8.20;;;;;4.90;99539.00;;;;10535462;28;20181;-74
2021/01/24 12:42:34;;;;;;;15.33;8.90;;;;;4.90;99538.00;;;;10520114;28;20461;-74
2021/01/24 12:47:35;;;;;;;13.00;8.70;;;;;4.90;99521.00;;;;10508536;28;20217;-74
2021/01/24 12:52:36;;;;;;;13.87;7.53;;;;;4.80;99515.00;;;;10527625;28;20712;-74
2021/01/24 12:57:38;;;;;;;9.10;6.57;;;;;4.60;99513.00;;;;10532455;28;20192;-74
2021/01/24 13:02:39;;;;;;;16.03;7.53;;;;;4.40;99507.00;;;;10569819;28;20265;-76
2021/01/24 13:07:41;;;;;;;18.07;9.43;;;;;4.30;99508.00;;;;10521609;28;20189;-74
2021/01/24 13:12:42;;;;;;;14.77;7.17;;;;;4.40;99500.00;;;;10504674;28;20192;-74
2021/01/24 13:17:44;;;;;;;14.00;8.30;;;;;4.70;99487.00;;;;10551633;28;20241;-74
2021/01/24 13:22:45;;;;;;;11.83;7.00;;;;;4.90;99487.00;;;;10551773;28;20188;-74
2021/01/24 13:27:47;;;;;;;12.27;7.03;;;;;4.80;99474.00;;;;10545614;28;20642;-74
2021/01/24 13:32:48;;;;;;;8.23;5.80;;;;;4.70;99472.00;;;;10544163;28;20318;-75
2021/01/24 13:37:50;;;;;;;9.30;5.77;;;;;4.50;99478.00;;;;10544422;28;20539;-75
2021/01/24 13:42:51;;;;;;;10.50;6.53;;;;;4.30;99479.00;;;;10570502;27;20311;-74
2021/01/24 13:47:52;;;;;;;11.63;6.20;;;;;4.30;99472.00;;;;10592658;27;20198;-74
2021/01/24 13:52:54;;;;;;;9.60;5.80;;;;;4.20;99459.00;;;;10576088;27;20202;-74
2021/01/24 13:58:14;;;;;;;9.77;5.50;;;;;4.20;99466.00;;;;10553170;28;20203;-74
2021/01/24 14:03:19;;;;;;;10.43;5.93;;;;;4.10;99450.00;;;;10550044;27;20253;-74
2021/01/24 14:08:20;;;;;;;10.40;5.80;;;;;4.10;99444.00;;;;10532751;28;20936;-74
2021/01/24 14:13:22;;;;;;;12.40;7.60;;;;;4.10;99440.00;;;;10536897;28;20189;-74
2021/01/24 14:18:23;;;;;;;13.30;7.90;;;;;4.10;99440.00;;;;10515636;28;20254;-75
2021/01/24 14:23:25;;;;;;;9.03;6.37;;;;;4.10;99435.00;;;;10506418;28;20261;-75
2021/01/24 14:28:26;;;;;;;8.03;6.30;;;;;4.20;99434.00;;;;10548865;28;20203;-74
2021/01/24 14:33:28;;;;;;;9.10;5.97;;;;;4.20;99430.00;;;;10562339;28;20862;-74
2021/01/24 14:38:29;;;;;;;9.07;5.50;;;;;4.00;99435.00;;;;10535522;28;20185;-75
2021/01/24 14:43:43;;;;;;;9.60;5.20;;;;;3.80;99421.00;;;;10517625;28;20295;-74
2021/01/24 14:48:45;;;;;;;12.43;6.13;;;;;3.80;99419.00;;;;10546111;28;20235;-74
2021/01/24 14:53:46;;;;;;;10.17;5.50;;;;;3.80;99434.00;;;;10487916;28;20185;-74
2021/01/24 14:58:49;;;;;;;13.10;6.10;;;;;3.80;99431.00;;;;10558789;28;20219;-74
2021/01/24 15:03:50;;;;;;;11.27;6.73;;;;;3.80;99427.00;;;;10528832;28;20220;-74
2021/01/24 15:08:52;;;;;;;12.93;6.17;;;;;3.80;99418.00;;;;10538870;28;20245;-75
2021/01/24 15:13:53;;;;;;;12.20;6.50;;;;;3.80;99411.00;;;;10505038;28;20230;-74
2021/01/24 15:18:55;;;;;;;12.33;6.40;;;;;3.90;99420.00;;;;10533716;28;20224;-74
2021/01/24 15:23:56;;;;;;;7.83;6.30;;;;;3.90;99413.00;;;;10557012;27;20624;-75
2021/01/24 15:28:57;;;;;;;9.30;6.00;;;;;3.60;99399.00;;;;10526547;28;20242;-74
2021/01/24 15:33:59;;;;;;;9.33;6.27;;;;;3.20;99397.00;;;;10500511;28;20193;-75
2021/01/24 15:39:03;;;;;;;8.23;5.93;;;;;3.00;99401.00;;;;10537918;28;20192;-75
2021/01/24 15:44:15;;;;;;;11.33;6.53;;;;;2.90;99393.00;;;;10563827;28;20236;-75
2021/01/24 15:49:16;;;;;;;11.30;6.50;;;;;2.80;99387.00;;;;10546623;28;20670;-75
2021/01/24 15:54:18;;;;;;;11.90;6.23;;;;;2.60;99395.00;;;;10538170;28;20193;-75
2021/01/24 15:59:19;;;;;;;14.93;7.60;;;;;2.50;99375.00;;;;10528458;28;20197;-74
2021/01/24 16:04:20;;;;;;;11.70;7.37;;;;;2.50;99368.00;;;;10505357;28;20219;-74
2021/01/24 16:09:22;;;;;;;15.63;8.83;;;;;2.40;99369.00;;;;10528429;28;20185;-75
2021/01/24 16:14:23;;;;;;;15.63;8.63;;;;;2.40;99368.00;;;;10534078;28;20543;-76
2021/01/24 16:19:25;;;;;;;9.20;5.80;;;;;2.30;99367.00;;;;10510852;28;20184;-76
2021/01/24 16:24:27;;;;;;;11.67;6.27;;;;;2.30;99366.00;;;;10530772;28;20196;-76
2021/01/24 16:29:47;;;;;;;9.13;6.87;;;;;2.30;99357.00;;;;10522642;28;20195;-76
2021/01/24 16:34:49;;;;;;;9.23;5.93;;;;;2.40;99354.00;;;;10512806;28;20234;-75
2021/01/24 16:39:50;;;;;;;8.17;5.07;;;;;2.40;99347.00;;;;10522991;28;20192;-76
2021/01/24 16:44:52;;;;;;;6.60;5.30;;;;;2.30;99347.00;;;;10561255;28;20601;-76
2021/01/24 16:49:54;;;;;;;9.63;5.67;;;;;2.30;99335.00;;;;10549876;28;20245;-76
2021/01/24 16:54:55;;;;;;;9.00;5.77;;;;;2.20;99339.00;;;;10559950;28;20189;-76
2021/01/24 16:59:57;;;;;;;12.77;8.20;;;;;2.20;99331.00;;;;10501931;28;20276;-75
2021/01/24 17:04:58;;;;;;;11.80;8.70;;;;;2.20;99320.00;;;;10583086;27;20236;-76
2021/01/24 17:10:06;;;;;;;17.30;8.53;;;;;2.10;99315.00;;;;10542640;27;20185;-75
2021/01/24 17:15:08;;;;;;;20.07;13.20;;;;;2.00;99297.00;;;;10539341;27;20234;-75
2021/01/24 17:20:11;;;;;;;10.47;7.53;;;;;2.00;99294.00;;;;10546614;27;20667;-75
2021/01/24 17:25:14;;;;;;;31.97;19.17;;;;;2.00;99287.00;;;;10541115;28;20212;-75
2021/01/24 17:30:17;;;;;;;11.10;7.00;;;;;2.00;99280.00;;;;10529442;28;20540;-75
2021/01/24 17:35:18;;;;;;;11.47;6.03;;;;;2.00;99286.00;;;;10517397;27;20691;-75
2021/01/24 17:40:19;;;;;;;35.93;15.80;;;;;2.00;99277.00;;;;10539601;27;20187;-76
2021/01/24 17:45:21;;;;;;;17.23;7.67;;;;;2.10;99274.00;;;;10587642;27;20208;-75
2021/01/24 17:50:22;;;;;;;12.43;6.23;;;;;2.10;99271.00;;;;10549649;27;20193;-75
2021/01/24 17:55:23;;;;;;;12.97;8.73;;;;;2.20;99256.00;;;;10525841;27;20664;-75
2021/01/24 18:00:25;;;;;;;7.80;4.70;;;;;2.10;99236.00;;;;10522356;27;20188;-75
2021/01/24 18:05:26;;;;;;;5.37;3.73;;;;;2.10;99223.00;;;;10540588;27;20220;-75
2021/01/24 18:10:27;;;;;;;3.80;2.13;;;;;2.00;99217.00;;;;10546474;27;20223;-75
2021/01/24 18:15:29;;;;;;;5.00;3.13;;;;;1.90;99211.00;;;;10577359;27;20557;-76
2021/01/24 18:20:30;;;;;;;5.30;2.43;;;;;1.90;99201.00;;;;10544737;27;20193;-75
2021/01/24 18:25:32;;;;;;;5.43;2.60;;;;;1.90;99193.00;;;;10548166;27;20208;-76
2021/01/24 18:30:33;;;;;;;7.97;3.47;;;;;1.80;99192.00;;;;10540246;27;20230;-75
2021/01/24 18:35:34;;;;;;;6.33;3.80;;;;;1.80;99190.00;;;;10569415;27;20185;-75
2021/01/24 18:40:36;;;;;;;6.87;4.20;;;;;1.80;99183.00;;;;10530995;28;20189;-76
2021/01/24 18:45:38;;;;;;;6.83;3.27;;;;;1.80;99184.00;;;;10515582;27;20214;-76
2021/01/24 18:50:40;;;;;;;7.07;3.20;;;;;1.70;99177.00;;;;10512518;28;20279;-75
2021/01/24 18:55:43;;;;;;;3.20;2.60;;;;;1.70;99170.00;;;;10535335;28;20180;-75
2021/01/24 19:00:44;;;;;;;6.97;3.13;;;;;1.70;99162.00;;;;10532139;28;20200;-76
2021/01/24 19:05:46;;;;;;;9.13;4.00;;;;;1.70;99175.00;;;;10506367;28;20254;-76
2021/01/24 19:10:47;;;;;;;6.13;3.50;;;;;1.70;99166.00;;;;10485968;28;20813;-76
2021/01/24 19:15:48;;;;;;;10.00;4.60;;;;;1.70;99163.00;;;;10523384;28;20216;-76
2021/01/24 19:20:50;;;;;;;9.40;3.77;;;;;1.70;99161.00;;;;10533352;28;20683;-75
2021/01/24 19:25:51;;;;;;;15.60;5.93;;;;;1.70;99160.00;;;;10587975;27;20207;-76
2021/01/24 19:30:53;;;;;;;23.57;8.27;;;;;1.70;99163.00;;;;10566129;27;20193;-76
2021/01/24 19:35:54;;;;;;;38.20;20.23;;;;;1.70;99160.00;;;;10525525;27;20192;-76
2021/01/24 19:40:56;;;;;;;10.23;4.43;;;;;1.60;99154.00;;;;10545897;28;20220;-76
2021/01/24 19:45:57;;;;;;;9.40;5.50;;;;;1.60;99156.00;;;;10556440;27;20207;-76
2021/01/24 19:50:59;;;;;;;10.57;4.67;;;;;1.60;99147.00;;;;10523185;28;20582;-76
2021/01/24 19:56:03;;;;;;;8.47;4.63;;;;;1.60;99150.00;;;;10559205;27;20264;-76
2021/01/24 20:01:05;;;;;;;7.13;3.53;;;;;1.60;99147.00;;;;10543337;27;20890;-76
2021/01/24 20:06:07;;;;;;;6.27;3.97;;;;;1.60;99144.00;;;;10581791;27;20279;-76
2021/01/24 20:11:09;;;;;;;8.03;3.90;;;;;1.60;99141.00;;;;10562029;28;20670;-76
2021/01/24 20:16:10;;;;;;;8.50;4.20;;;;;1.50;99131.00;;;;10531616;28;20188;-75
2021/01/24 20:21:12;;;;;;;10.77;4.17;;;;;1.50;99139.00;;;;10512001;28;20699;-75
2021/01/24 20:26:13;;;;;;;8.70;5.10;;;;;1.50;99131.00;;;;10544359;28;20200;-75
2021/01/24 20:31:30;;;;;;;8.67;4.27;;;;;1.50;99124.00;;;;10554301;28;20257;-75
2021/01/24 20:36:32;;;;;;;7.30;4.73;;;;;1.50;99135.00;;;;10508587;28;20544;-75
2021/01/24 20:41:33;;;;;;;7.00;4.33;;;;;1.50;99123.00;;;;10533040;28;20227;-75
2021/01/24 20:46:34;;;;;;;6.40;4.80;;;;;1.50;99131.00;;;;10507047;28;20258;-76
2021/01/24 20:51:36;;;;;;;6.77;4.60;;;;;1.50;99131.00;;;;10559991;28;20691;-75
2021/01/24 20:56:37;;;;;;;9.47;5.87;;;;;1.50;99121.00;;;;10533520;28;20196;-76
2021/01/24 21:01:39;;;;;;;8.13;4.67;;;;;1.60;99112.00;;;;10520150;28;20233;-76
2021/01/24 21:06:40;;;;;;;7.67;4.50;;;;;1.60;99120.00;;;;10503609;27;20842;-76
2021/01/24 21:11:42;;;;;;;5.23;3.97;;;;;1.60;99121.00;;;;10548609;27;20191;-77
2021/01/24 21:16:43;;;;;;;7.17;4.63;;;;;1.60;99122.00;;;;10580241;27;20228;-76
2021/01/24 21:21:45;;;;;;;6.27;4.40;;;;;1.50;99121.00;;;;10591592;27;20267;-76
2021/01/24 21:26:47;;;;;;;6.33;4.23;;;;;1.50;99126.00;;;;10562484;27;20231;-76
2021/01/24 21:31:48;;;;;;;10.07;4.17;;;;;1.40;99113.00;;;;10599499;27;20189;-76
2021/01/24 21:36:51;;;;;;;5.93;4.93;;;;;1.40;99120.00;;;;10550787;27;20244;-76
2021/01/24 21:41:52;;;;;;;9.03;5.67;;;;;1.40;99118.00;;;;10562102;27;20242;-76
2021/01/24 21:46:53;;;;;;;7.13;5.00;;;;;1.40;99119.00;;;;10512089;27;20676;-76
2021/01/24 21:51:55;;;;;;;9.77;6.07;;;;;1.50;99120.00;;;;10544747;27;20218;-76
2021/01/24 21:56:57;;;;;;;6.97;5.23;;;;;1.50;99114.00;;;;10538527;27;20262;-76
2021/01/24 22:01:58;;;;;;;7.13;5.57;;;;;1.50;99122.00;;;;10576794;27;20223;-76
2021/01/24 22:07:02;;;;;;;8.97;5.90;;;;;1.50;99111.00;;;;10529728;27;20215;-76
2021/01/24 22:12:04;;;;;;;6.17;5.37;;;;;1.50;99123.00;;;;10561711;27;20195;-76
2021/01/24 22:17:06;;;;;;;7.73;5.97;;;;;1.60;99118.00;;;;10586523;27;20193;-76
2021/01/24 22:22:08;;;;;;;9.63;6.20;;;;;1.60;99129.00;;;;10524302;28;20601;-76
2021/01/24 22:27:09;;;;;;;6.90;5.40;;;;;1.60;99126.00;;;;10566722;27;20408;-76
2021/01/24 22:32:10;;;;;;;7.30;5.67;;;;;1.60;99125.00;;;;10543035;27;20188;-76
2021/01/24 22:37:12;;;;;;;6.60;5.30;;;;;1.70;99131.00;;;;10544361;27;20222;-76
2021/01/24 22:42:13;;;;;;;8.50;5.83;;;;;1.70;99137.00;;;;10557919;27;20196;-76
2021/01/24 22:47:14;;;;;;;7.00;5.53;;;;;1.70;99129.00;;;;10525738;28;20201;-76
2021/01/24 22:52:16;;;;;;;8.30;6.37;;;;;1.70;99133.00;;;;10549442;28;20227;-76
2021/01/24 22:57:17;;;;;;;6.80;6.00;;;;;1.70;99139.00;;;;10548482;28;20192;-76
2021/01/24 23:02:19;;;;;;;10.23;6.37;;;;;1.80;99142.00;;;;10562053;28;20189;-76
2021/01/24 23:07:20;;;;;;;6.93;5.83;;;;;1.80;99144.00;;;;10522928;28;20212;-76
2021/01/24 23:12:21;;;;;;;7.77;6.40;;;;;1.80;99142.00;;;;10580087;28;20237;-76
2021/01/24 23:17:23;;;;;;;8.80;7.13;;;;;1.80;99154.00;;;;10553134;27;20279;-76
2021/01/24 23:22:24;;;;;;;10.37;7.03;;;;;1.80;99166.00;;;;10552280;28;20239;-76
2021/01/24 23:27:25;;;;;;;8.93;6.77;;;;;1.80;99156.00;;;;10527111;28;20242;-76
2021/01/24 23:32:27;;;;;;;8.20;6.93;;;;;1.80;99156.00;;;;10546825;28;20215;-76
2021/01/24 23:37:28;;;;;;;9.60;6.97;;;;;1.80;99155.00;;;;10523161;28;20234;-76
2021/01/24 23:42:30;;;;;;;9.57;6.57;;;;;1.80;99153.00;;;;10534132;28;20226;-76
2021/01/24 23:47:31;;;;;;;10.37;7.57;;;;;1.80;99147.00;;;;10624870;27;20239;-76
2021/01/24 23:52:32;;;;;;;12.80;8.47;;;;;1.80;99142.00;;;;10581967;27;20216;-76
2021/01/24 23:57:34;;;;;;;11.60;8.13;;;;;1.80;99148.00;;;;10541215;28;20185;-76
